MHLC/LCE METAR and TAF weather

Enter ICAO airport designator
Station Type Date Time Source
MHLC METAR 2019/11/22 01:00 UTC NOAA

MHLC 220100Z 12003KT 9999 SCT028CB SCT090 24/22 Q1014 A2995 NOSIG


Station Type Date Time Source
MHLC Decoded METAR 2019/11/22 01:00 UTC NOAA

La Ceiba Airport , Honduras (MHLC) 15-44N 086-52W 26M
Nov 21, 2019 - 08:00 PM EST / 2019.11.22 0100 UTC
Wind: from the ESE (120 degrees) at 3 MPH (3 KT):0
Visibility: greater than 7 mile(s):0
Sky conditions: partly cloudy
Weather: Cumulonimbus clouds observed
Temperature: 75 F (24 C)
Dew Point: 71 F (22 C)
Relative Humidity: 88%
Pressure (altimeter): 29.95 in. Hg (1014 hPa)
ob: MHLC 220100Z 12003KT 9999 SCT028CB SCT090 24/22 Q1014 A2995 NOSIG
cycle: 1

Station Type Date Time Source
MHLC TAF 2019/11/21 18:21 UTC NOAA

TAF MHLC 211610Z 2118/2218 34006KT 9999 SCT028TCU SCT080 TX30/2121Z TN21/2212Z PROB30
TEMPO 2121/2201 04010KT 7000 -RA
BECMG 2201/2203 00000KT 9999 NSW SCT024 SCT070
BECMG 2216/2218 34006KT 9999 SCT028TCU SCT080

Example: see airport list